Time;durP1;ratioP1;P1;durP2;ratioP2;P2;SDS_P1;SDS_P2;PMS_P1;PMS_P2;Temp;Humidity;BMP_temperature;BMP_pressure;BME280_temperature;BME280_humidity;BME280_pressure;Samples;Min_cycle;Max_cycle;Signal;HPM_P1;HPM_P2
2023/02/27 00:00:13;;;;;;;2.50;2.40;;;;;;;-1.64;90.36;102451.16;6080685;23;20310;-74
2023/02/27 00:02:42;;;;;;;2.45;2.35;;;;;;;-1.85;89.87;102427.41;6056837;23;20022;-73
2023/02/27 00:05:09;;;;;;;2.70;2.60;;;;;;;-1.91;90.00;102404.09;6084188;23;20062;-74
2023/02/27 00:07:36;;;;;;;2.78;2.60;;;;;;;-1.78;90.38;102437.03;6079530;23;20022;-73
2023/02/27 00:10:03;;;;;;;2.50;2.40;;;;;;;-1.77;90.90;102432.75;6053017;23;20107;-74
2023/02/27 00:12:36;;;;;;;2.60;2.50;;;;;;;-2.28;90.87;102356.81;6078891;23;20523;-75
2023/02/27 00:15:04;;;;;;;2.30;2.20;;;;;;;-1.59;91.76;102468.41;6064922;23;20117;-74
2023/02/27 00:17:31;;;;;;;2.50;2.40;;;;;;;-1.66;91.88;102463.09;6083006;23;20018;-74
2023/02/27 00:19:57;;;;;;;2.60;2.50;;;;;;;-1.68;93.12;102469.91;6050949;23;20038;-74
2023/02/27 00:22:23;;;;;;;2.30;2.20;;;;;;;-2.44;93.41;102355.50;6084902;23;20101;-75
2023/02/27 00:24:50;;;;;;;2.83;2.72;;;;;;;-1.90;93.06;102442.72;6050777;23;20018;-75
2023/02/27 00:27:16;;;;;;;2.55;2.45;;;;;;;-2.14;93.96;102440.34;6081840;23;20029;-75
2023/02/27 00:29:42;;;;;;;2.72;2.53;;;;;;;-3.11;95.38;102277.34;6081059;23;20017;-74
2023/02/27 00:32:09;;;;;;;2.40;2.30;;;;;;;-2.16;96.61;102456.56;6080915;23;20033;-75
2023/02/27 00:34:35;;;;;;;2.20;2.10;;;;;;;-2.81;98.58;102364.69;6081765;23;20014;-73
2023/02/27 00:37:02;;;;;;;2.40;2.30;;;;;;;-2.33;98.67;102451.78;6081037;23;20304;-74
2023/02/27 00:39:28;;;;;;;2.30;2.20;;;;;;;-2.67;100.00;102393.38;6056193;23;20040;-76
2023/02/27 00:41:55;;;;;;;2.78;2.67;;;;;;;-2.53;100.00;102402.34;6081705;23;20043;-72
2023/02/27 00:44:21;;;;;;;2.65;2.55;;;;;;;-2.61;100.00;102373.00;6063117;23;20034;-75
2023/02/27 00:46:48;;;;;;;2.50;2.40;;;;;;;-1.98;100.00;102477.66;6080057;23;20037;-75
2023/02/27 00:49:14;;;;;;;2.30;2.20;;;;;;;-2.53;100.00;102393.78;6082318;23;20269;-77
2023/02/27 00:51:40;;;;;;;3.20;2.95;;;;;;;-2.09;99.97;102458.47;6054061;23;20068;-77
2023/02/27 00:54:08;;;;;;;2.42;2.33;;;;;;;-2.11;99.23;102435.28;6082929;23;20577;-75
2023/02/27 00:56:35;;;;;;;2.30;2.20;;;;;;;-2.48;98.86;102408.53;6053483;23;20038;-73
2023/02/27 00:59:02;;;;;;;2.30;2.20;;;;;;;-2.19;98.29;102421.31;6079992;23;20044;-74
2023/02/27 01:01:28;;;;;;;2.40;2.30;;;;;;;-2.29;97.94;102411.59;6052273;23;20018;-73
2023/02/27 01:03:55;;;;;;;2.78;2.67;;;;;;;-2.15;98.50;102458.28;6081230;23;20030;-74
2023/02/27 01:06:21;;;;;;;2.45;2.35;;;;;;;-2.58;98.17;102382.50;6077905;23;20100;-76
2023/02/27 01:08:47;;;;;;;2.40;2.30;;;;;;;-2.08;99.73;102461.09;6051087;23;20030;-74
2023/02/27 01:11:14;;;;;;;2.45;2.33;;;;;;;-2.81;99.47;102344.16;6063649;23;20024;-73
2023/02/27 01:13:40;;;;;;;2.35;2.25;;;;;;;-2.07;100.00;102470.53;6081631;23;20521;-74
2023/02/27 01:16:09;;;;;;;2.40;2.30;;;;;;;-2.69;100.00;102384.75;6055546;23;20017;-74
2023/02/27 01:18:35;;;;;;;2.50;2.40;;;;;;;-2.29;100.00;102456.19;6077415;23;20024;-75
2023/02/27 01:21:02;;;;;;;4.05;2.60;;;;;;;-2.48;100.00;102429.09;6049128;23;20448;-73
2023/02/27 01:23:29;;;;;;;2.40;2.30;;;;;;;-2.74;100.00;102394.91;6079837;23;20037;-74
2023/02/27 01:25:55;;;;;;;2.47;2.38;;;;;;;-2.37;100.00;102449.94;6076607;23;20024;-75
2023/02/27 01:28:22;;;;;;;3.50;3.20;;;;;;;-2.54;100.00;102435.75;6057341;23;20043;-74
2023/02/27 01:30:48;;;;;;;2.47;2.38;;;;;;;-3.11;100.00;102351.81;6078533;23;20030;-74
2023/02/27 01:33:15;;;;;;;2.22;2.13;;;;;;;-2.96;100.00;102385.66;6077567;23;20026;-75
2023/02/27 01:35:41;;;;;;;2.22;2.13;;;;;;;-2.77;100.00;102396.50;6078204;23;20022;-73
2023/02/27 01:38:07;;;;;;;2.55;2.35;;;;;;;-2.66;100.00;102425.97;6052903;23;20511;-76
2023/02/27 01:40:38;;;;;;;2.20;2.10;;;;;;;-2.32;100.00;102457.81;6050858;23;20551;-74
2023/02/27 01:43:06;;;;;;;2.83;2.63;;;;;;;-2.28;100.00;102459.66;6078645;23;20037;-75
2023/02/27 01:45:35;;;;;;;2.55;2.45;;;;;;;-2.29;100.00;102453.63;6057175;23;20595;-75
2023/02/27 01:48:12;;;;;;;2.97;2.78;;;;;;;-2.82;100.00;102368.09;6082649;23;20037;-75
2023/02/27 01:50:45;;;;;;;2.10;2.00;;;;;;;-2.43;100.00;102434.34;6057756;23;20136;-76
2023/02/27 01:53:13;;;;;;;2.25;2.15;;;;;;;-2.55;100.00;102421.13;6075944;23;20683;-75
2023/02/27 01:55:40;;;;;;;2.30;2.20;;;;;;;-2.53;100.00;102442.63;6055973;23;20033;-75
2023/02/27 01:58:09;;;;;;;2.10;2.00;;;;;;;-4.45;100.00;102157.72;6052199;23;20030;-75
2023/02/27 02:00:37;;;;;;;2.30;2.20;;;;;;;-3.52;100.00;102330.84;6055636;23;20018;-74
2023/02/27 02:03:13;;;;;;;4.97;2.50;;;;;;;-3.71;100.00;102307.19;6078955;23;20670;-74
2023/02/27 02:05:39;;;;;;;2.13;2.03;;;;;;;-3.30;100.00;102394.03;6058837;23;20186;-74
2023/02/27 02:08:06;;;;;;;2.20;2.10;;;;;;;-3.21;100.00;102426.00;6072288;23;20026;-76
2023/02/27 02:10:33;;;;;;;2.53;2.42;;;;;;;-3.27;100.00;102438.63;6077504;23;20028;-75
2023/02/27 02:12:59;;;;;;;2.40;2.30;;;;;;;-3.79;100.00;102361.59;6077055;23;20030;-73
2023/02/27 02:15:35;;;;;;;2.63;2.53;;;;;;;-3.31;100.00;102423.94;6056670;23;20041;-75
2023/02/27 02:18:32;;;;;;;2.75;2.65;;;;;;;-3.28;100.00;102447.16;6079870;23;20010;-75
2023/02/27 02:21:20;;;;;;;2.45;2.35;;;;;;;-3.24;100.00;102430.16;6035748;23;20015;-75
2023/02/27 02:24:24;;;;;;;2.90;2.80;;;;;;;-3.26;100.00;102418.97;6077569;23;20546;-73
2023/02/27 02:27:03;;;;;;;8.48;3.05;;;;;;;-3.19;100.00;102417.47;6052747;23;20458;-74
2023/02/27 02:30:01;;;;;;;2.47;2.38;;;;;;;-3.21;100.00;102419.97;6075550;23;20026;-74
2023/02/27 02:32:46;;;;;;;2.20;2.10;;;;;;;-3.13;100.00;102421.09;6051603;23;20107;-73
2023/02/27 02:35:28;;;;;;;2.30;2.20;;;;;;;-3.06;100.00;102424.75;6074635;23;20566;-76
2023/02/27 02:38:22;;;;;;;2.47;2.37;;;;;;;-3.05;100.00;102429.03;6074507;23;20018;-74
2023/02/27 02:40:59;;;;;;;2.28;2.17;;;;;;;-3.76;100.00;102306.13;6045044;23;20881;-74
2023/02/27 02:43:49;;;;;;;2.40;2.30;;;;;;;-2.95;100.00;102428.50;6076494;23;20047;-73
2023/02/27 02:46:33;;;;;;;2.33;2.22;;;;;;;-3.06;100.00;102394.78;6050799;23;20038;-75
2023/02/27 02:49:18;;;;;;;2.33;2.22;;;;;;;-2.97;100.00;102425.00;6080896;23;20083;-75
2023/02/27 02:52:02;;;;;;;2.47;2.30;;;;;;;-3.02;100.00;102427.44;6050604;23;20022;-75
2023/02/27 02:55:06;;;;;;;2.70;2.60;;;;;;;-3.21;100.00;102405.47;6075018;23;20025;-75
2023/02/27 02:57:39;;;;;;;5.22;2.67;;;;;;;-3.18;100.00;102432.91;6038608;23;20089;-76
2023/02/27 03:00:12;;;;;;;2.72;2.60;;;;;;;-3.29;100.00;102416.28;6053374;23;20025;-73
2023/02/27 03:02:46;;;;;;;2.97;2.78;;;;;;;-3.99;100.00;102312.19;6078595;23;20014;-73
2023/02/27 03:05:29;;;;;;;2.50;2.30;;;;;;;-3.37;100.00;102428.88;6081175;23;20199;-74
2023/02/27 03:08:05;;;;;;;2.30;2.20;;;;;;;-3.59;100.00;102401.59;6057698;23;20026;-74
2023/02/27 03:11:04;;;;;;;2.67;2.58;;;;;;;-3.51;100.00;102420.69;6081203;23;20121;-73
2023/02/27 03:13:37;;;;;;;2.85;2.67;;;;;;;-3.54;100.00;102427.44;6011964;23;20428;-73
2023/02/27 03:16:27;;;;;;;2.60;2.50;;;;;;;-3.88;100.00;102388.69;6079765;23;20394;-75
2023/02/27 03:19:06;;;;;;;2.20;2.10;;;;;;;-3.67;100.00;102423.56;6058966;23;20141;-76
2023/02/27 03:21:39;;;;;;;2.30;2.20;;;;;;;-3.98;100.00;102386.63;6081654;23;20029;-75
2023/02/27 03:24:11;;;;;;;2.22;2.13;;;;;;;-3.96;100.00;102402.06;6035124;23;20021;-74
2023/02/27 03:26:41;;;;;;;3.13;2.80;;;;;;;-4.85;100.00;102277.63;6079269;23;20433;-75
2023/02/27 03:29:13;;;;;;;2.20;2.10;;;;;;;-3.89;100.00;102432.22;6050706;23;20341;-75
2023/02/27 03:31:45;;;;;;;2.47;2.38;;;;;;;-4.67;100.00;102315.84;6057680;23;20394;-73
2023/02/27 03:34:21;;;;;;;2.75;2.58;;;;;;;-4.54;100.00;102352.16;6046585;23;20530;-74
2023/02/27 03:37:14;;;;;;;2.20;2.10;;;;;;;-4.68;100.00;102343.97;6076879;23;20026;-75
2023/02/27 03:39:40;;;;;;;;;;;;;;;-3.99;100.00;102425.88;6058024;23;20042;-74
2023/02/27 03:42:28;;;;;;;2.20;2.10;;;;;;;-3.94;100.00;102436.34;6076863;23;20474;-74
2023/02/27 03:44:58;;;;;;;2.50;2.40;;;;;;;-3.89;100.00;102435.69;6077484;23;21774;-74
2023/02/27 03:47:24;;;;;;;2.20;2.10;;;;;;;-3.90;100.00;102433.06;6033156;23;20080;-75
2023/02/27 03:49:51;;;;;;;2.40;2.30;;;;;;;-3.81;100.00;102441.94;6078437;23;20017;-74
2023/02/27 03:52:19;;;;;;;2.40;2.30;;;;;;;-3.81;100.00;102435.91;6082358;23;20022;-75
2023/02/27 03:54:55;;;;;;;2.22;2.13;;;;;;;-4.15;100.00;102388.59;6078474;23;20205;-74
2023/02/27 03:57:22;;;;;;;2.17;2.08;;;;;;;-4.61;100.00;102331.44;6080970;23;20029;-75
2023/02/27 03:59:49;;;;;;;2.25;2.15;;;;;;;-4.25;100.00;102414.69;6054484;23;20226;-73
2023/02/27 04:02:15;;;;;;;2.20;2.10;;;;;;;-4.19;100.00;102426.88;6076364;23;20030;-77
2023/02/27 04:04:42;;;;;;;2.08;1.98;;;;;;;-4.56;100.00;102390.53;6036139;23;20404;-73
2023/02/27 04:07:22;;;;;;;2.58;2.38;;;;;;;-4.31;100.00;102432.41;6080466;23;20086;-75
2023/02/27 04:09:48;;;;;;;2.33;2.22;;;;;;;-4.38;100.00;102435.59;6037540;23;20029;-73
2023/02/27 04:12:17;;;;;;;2.40;2.30;;;;;;;-4.42;100.00;102445.72;6080778;23;20131;-73
2023/02/27 04:15:11;;;;;;;2.15;2.05;;;;;;;-4.65;100.00;102415.78;6079680;23;20026;-73
2023/02/27 04:18:13;;;;;;;2.35;2.25;;;;;;;-4.50;100.00;102442.00;6079227;23;20379;-74
2023/02/27 04:21:09;;;;;;;2.20;2.10;;;;;;;-4.49;100.00;102443.75;6056392;23;20373;-76
2023/02/27 04:24:35;;;;;;;2.78;2.58;;;;;;;-5.04;100.00;102387.84;6071446;23;20031;-75
2023/02/27 04:27:05;;;;;;;2.35;2.25;;;;;;;-5.63;100.00;102262.75;6021211;23;20545;-76
2023/02/27 04:29:54;;;;;;;2.30;2.20;;;;;;;-4.93;100.00;102396.81;5989851;23;20050;-73
2023/02/27 04:32:48;;;;;;;2.00;1.90;;;;;;;-4.59;100.00;102436.53;6061344;23;20095;-74
2023/02/27 04:35:25;;;;;;;2.03;1.92;;;;;;;-6.10;100.00;102179.94;6052622;23;20083;-74
2023/02/27 04:37:58;;;;;;;2.38;2.28;;;;;;;-4.61;100.00;102438.13;6056111;23;20128;-76
2023/02/27 04:41:02;;;;;;;2.60;2.50;;;;;;;-4.88;100.00;102405.53;6080378;23;20078;-74
2023/02/27 04:43:31;;;;;;;2.67;2.58;;;;;;;-5.17;100.00;102348.09;6042310;23;20029;-76
2023/02/27 04:46:00;;;;;;;2.85;2.75;;;;;;;-4.69;100.00;102434.41;6080545;23;20353;-74
2023/02/27 04:48:39;;;;;;;2.47;2.38;;;;;;;-6.02;100.00;102218.59;6084097;23;20018;-75
2023/02/27 04:51:14;;;;;;;1.80;1.80;;;;;;;-4.66;100.00;102435.41;6077436;23;20025;-75
2023/02/27 04:53:53;;;;;;;1.88;1.88;;;;;;;-4.63;100.00;102429.53;6051190;23;20071;-73
2023/02/27 04:56:58;;;;;;;2.38;2.28;;;;;;;-4.58;100.00;102429.72;6077279;23;20033;-75
2023/02/27 04:59:29;;;;;;;2.42;2.33;;;;;;;-5.12;100.00;102343.16;5962740;23;20028;-74
2023/02/27 05:02:01;;;;;;;2.97;2.88;;;;;;;-4.91;100.00;102367.03;6064877;23;20036;-75
2023/02/27 05:04:30;;;;;;;;;;;;;;;-4.47;100.00;102442.13;6038371;23;20048;-73
2023/02/27 05:07:00;;;;;;;2.50;2.40;;;;;;;-5.12;100.00;102343.16;6078264;23;19917;-75
2023/02/27 05:10:01;;;;;;;4.35;2.80;;;;;;;-4.51;100.00;102445.38;6061500;23;20034;-74
2023/02/27 05:12:37;;;;;;;2.40;2.30;;;;;;;-4.91;100.00;102384.94;6076691;23;20016;-73
2023/02/27 05:15:17;;;;;;;2.50;2.40;;;;;;;-4.53;100.00;102448.69;6059585;23;20026;-75
2023/02/27 05:17:58;;;;;;;2.10;2.00;;;;;;;-4.63;100.00;102409.03;6079342;23;20026;-75
2023/02/27 05:20:32;;;;;;;2.38;2.28;;;;;;;-4.83;100.00;102408.25;6059777;23;20026;-74
2023/02/27 05:23:11;;;;;;;2.42;2.33;;;;;;;-4.60;100.00;102429.66;6080793;23;20093;-74
2023/02/27 05:25:54;;;;;;;2.20;2.10;;;;;;;-4.41;100.00;102452.59;6044925;23;20088;-75
2023/02/27 05:28:33;;;;;;;2.10;2.00;;;;;;;-4.65;100.00;102413.22;6076224;23;20417;-75
2023/02/27 05:31:13;;;;;;;2.22;2.13;;;;;;;-5.01;100.00;102350.44;6077565;23;20056;-74
2023/02/27 05:33:58;;;;;;;2.22;2.13;;;;;;;-4.38;100.00;102451.84;6056792;23;20041;-73
2023/02/27 05:36:35;;;;;;;2.30;2.20;;;;;;;-4.86;100.00;102385.97;6075654;23;20091;-75
2023/02/27 05:39:07;;;;;;;2.50;2.40;;;;;;;-4.94;100.00;102382.25;6077250;23;20034;-72
2023/02/27 05:41:43;;;;;;;2.63;2.53;;;;;;;-5.09;100.00;102344.16;6076770;23;20225;-73
2023/02/27 05:44:20;;;;;;;2.70;2.53;;;;;;;-4.83;100.00;102403.13;6060647;23;20024;-73
2023/02/27 05:46:54;;;;;;;2.38;2.28;;;;;;;-4.78;100.00;102413.59;6080803;23;20028;-74
2023/02/27 05:49:26;;;;;;;2.15;2.05;;;;;;;-4.57;100.00;102449.38;6080052;23;20081;-75
2023/02/27 05:51:56;;;;;;;3.05;2.88;;;;;;;-5.37;100.00;102314.06;6056065;23;20038;-75
2023/02/27 05:54:37;;;;;;;2.60;2.50;;;;;;;-5.20;100.00;102373.56;6078113;23;20025;-74
2023/02/27 05:57:09;;;;;;;2.85;2.75;;;;;;;-4.88;100.00;102413.22;6076226;23;20141;-74
2023/02/27 05:59:42;;;;;;;2.45;2.35;;;;;;;-4.90;100.00;102417.41;6053352;23;20343;-74
2023/02/27 06:02:10;;;;;;;2.70;2.60;;;;;;;-5.00;100.00;102422.97;6047770;23;20792;-74
2023/02/27 06:04:36;;;;;;;2.75;2.65;;;;;;;-5.29;100.00;102376.63;6076604;23;20297;-75
2023/02/27 06:07:05;;;;;;;2.60;2.50;;;;;;;-5.38;100.00;102360.03;6050436;23;20182;-73
2023/02/27 06:09:34;;;;;;;2.88;2.63;;;;;;;-5.43;100.00;102360.75;6074604;23;20064;-74
2023/02/27 06:12:01;;;;;;;4.35;4.03;;;;;;;-5.63;100.00;102326.69;6037290;23;20085;-74
2023/02/27 06:14:27;;;;;;;2.47;2.38;;;;;;;-5.09;100.00;102426.06;6073741;23;20036;-75
2023/02/27 06:16:53;;;;;;;2.28;2.17;;;;;;;-4.87;100.00;102439.69;6076860;23;20217;-76
2023/02/27 06:19:20;;;;;;;2.20;2.10;;;;;;;-5.38;100.00;102373.69;6052478;23;20052;-72
2023/02/27 06:21:47;;;;;;;2.50;2.40;;;;;;;-5.47;100.00;102381.88;6077585;23;20062;-73
2023/02/27 06:24:13;;;;;;;2.50;2.30;;;;;;;-5.58;100.00;102354.13;6055098;23;20276;-73
2023/02/27 06:26:39;;;;;;;2.40;2.30;;;;;;;-5.40;100.00;102395.78;6073822;23;20022;-75
2023/02/27 06:29:06;;;;;;;2.25;2.15;;;;;;;-5.01;100.00;102469.91;6063866;23;20286;-74
2023/02/27 06:31:32;;;;;;;2.50;2.40;;;;;;;-5.36;100.00;102400.22;6029340;23;20509;-73
2023/02/27 06:33:59;;;;;;;2.50;2.40;;;;;;;-5.31;100.00;102419.22;6075457;23;20216;-72
2023/02/27 06:36:27;;;;;;;2.30;2.20;;;;;;;-4.99;100.00;102454.56;6080649;23;20700;-73
2023/02/27 06:38:55;;;;;;;3.70;3.42;;;;;;;-5.41;100.00;102387.25;6076323;23;20211;-71
2023/02/27 06:41:21;;;;;;;2.50;2.30;;;;;;;-4.97;100.00;102461.53;6046186;23;20315;-72
2023/02/27 06:43:48;;;;;;;2.50;2.40;;;;;;;-4.85;100.00;102468.78;6075003;23;20037;-72
2023/02/27 06:46:14;;;;;;;3.08;2.67;;;;;;;-4.95;100.00;102428.28;6059447;23;20407;-73
2023/02/27 06:48:41;;;;;;;6.13;2.58;;;;;;;-4.71;100.00;102443.72;6079143;23;20037;-70
2023/02/27 06:51:07;;;;;;;2.40;2.30;;;;;;;-4.54;100.00;102468.31;6023972;23;20013;-74
2023/02/27 06:53:33;;;;;;;2.35;2.25;;;;;;;-4.49;100.00;102465.91;6082330;23;21796;-70
2023/02/27 06:56:00;;;;;;;2.95;2.75;;;;;;;-4.54;100.00;102459.75;6073660;23;20075;-70
2023/02/27 06:58:26;;;;;;;2.17;2.08;;;;;;;-4.73;100.00;102445.34;6057745;23;20038;-72
2023/02/27 07:00:53;;;;;;;2.30;2.20;;;;;;;-4.37;100.00;102506.50;6077743;23;20046;-72
2023/02/27 07:03:19;;;;;;;2.17;2.08;;;;;;;-4.83;100.00;102401.47;6065936;23;20026;-70
2023/02/27 07:05:45;;;;;;;3.05;2.90;;;;;;;-4.27;100.00;102472.72;6074408;23;20030;-72
2023/02/27 07:08:12;;;;;;;7.13;3.00;;;;;;;-4.64;100.00;102400.47;6050180;23;20453;-71
2023/02/27 07:10:41;;;;;;;3.08;2.88;;;;;;;-4.77;100.00;102372.69;6047374;23;20038;-73
2023/02/27 07:13:08;;;;;;;2.20;2.10;;;;;;;-3.84;100.00;102482.00;6054469;23;20068;-71
2023/02/27 07:15:34;;;;;;;2.40;2.30;;;;;;;-4.10;100.00;102419.53;6080420;23;20637;-73
2023/02/27 07:18:01;;;;;;;4.25;2.60;;;;;;;-4.22;100.00;102399.44;6054885;23;20052;-72
2023/02/27 07:20:27;;;;;;;2.30;2.20;;;;;;;-3.97;100.00;102408.00;6085979;23;20081;-72
2023/02/27 07:22:54;;;;;;;2.13;2.03;;;;;;;-3.44;100.00;102488.53;6062255;23;20003;-72
2023/02/27 07:25:20;;;;;;;2.42;2.28;;;;;;;-3.27;100.00;102484.84;6082353;23;20014;-74
2023/02/27 07:27:48;;;;;;;4.18;2.58;;;;;;;-3.01;100.00;102495.09;6059497;23;20068;-75
2023/02/27 07:30:16;;;;;;;2.20;2.10;;;;;;;-2.81;100.00;102494.06;6083489;23;20025;-71
2023/02/27 07:32:42;;;;;;;2.35;2.25;;;;;;;-2.93;100.00;102452.53;6060527;23;20032;-71
2023/02/27 07:35:10;;;;;;;3.03;2.83;;;;;;;-2.48;100.00;102503.63;6058817;23;20018;-73
2023/02/27 07:37:37;;;;;;;2.35;2.25;;;;;;;-3.07;100.00;102380.19;6076279;23;20036;-72
2023/02/27 07:40:06;;;;;;;2.88;2.72;;;;;;;-2.76;100.00;102411.97;6080750;23;20240;-72
2023/02/27 07:42:33;;;;;;;4.07;3.20;;;;;;;-2.53;100.00;102443.47;6079497;23;20336;-72
2023/02/27 07:44:59;;;;;;;4.90;2.50;;;;;;;-2.14;100.00;102478.94;6055576;23;20092;-73
2023/02/27 07:47:29;;;;;;;2.38;2.28;;;;;;;-2.16;100.00;102470.28;6080681;23;20061;-72
2023/02/27 07:49:55;;;;;;;2.80;2.70;;;;;;;-1.84;100.00;102520.09;6079570;23;20077;-72
2023/02/27 07:52:21;;;;;;;3.20;3.00;;;;;;;-3.28;100.00;102264.88;6079708;23;20107;-72
2023/02/27 07:54:48;;;;;;;10.20;3.22;;;;;;;-2.23;100.00;102427.22;6078407;23;20324;-71
2023/02/27 07:57:14;;;;;;;2.80;2.65;;;;;;;-2.54;100.00;102372.34;6049861;23;20462;-72
2023/02/27 07:59:41;;;;;;;3.08;2.83;;;;;;;-1.52;100.00;102527.84;6082868;23;20030;-71
2023/02/27 08:02:10;;;;;;;4.97;4.65;;;;;;;-1.42;100.00;102531.53;6067535;23;20095;-72
2023/02/27 08:04:36;;;;;;;2.80;2.70;;;;;;;-2.01;100.00;102414.09;6050103;23;20046;-72
2023/02/27 08:07:04;;;;;;;2.90;2.75;;;;;;;-1.27;100.00;102529.34;6083482;23;20045;-72
2023/02/27 08:09:30;;;;;;;3.60;3.40;;;;;;;-1.51;100.00;102477.22;6085162;23;20045;-75
2023/02/27 08:11:57;;;;;;;2.72;2.63;;;;;;;-1.58;100.00;102449.53;6082667;23;20033;-72
2023/02/27 08:14:24;;;;;;;3.33;3.13;;;;;;;-1.24;100.00;102508.84;6086512;23;20492;-72
2023/02/27 08:16:50;;;;;;;2.67;2.58;;;;;;;-2.10;100.00;102326.41;6077268;23;20206;-72
2023/02/27 08:19:16;;;;;;;2.70;2.60;;;;;;;-0.93;100.00;102511.31;6051858;23;20027;-72
2023/02/27 08:21:43;;;;;;;2.35;2.25;;;;;;;-0.84;100.00;102525.28;6060878;23;20037;-73
2023/02/27 08:24:09;;;;;;;2.72;2.63;;;;;;;-0.75;100.00;102518.63;6052264;23;20026;-73
2023/02/27 08:26:36;;;;;;;2.90;2.80;;;;;;;-1.04;100.00;102456.94;6054978;23;20022;-73
2023/02/27 08:29:02;;;;;;;2.90;2.80;;;;;;;-1.27;100.00;102410.00;6070584;23;20497;-73
2023/02/27 08:31:29;;;;;;;3.33;3.22;;;;;;;-0.49;100.00;102509.78;6057356;23;20061;-72
2023/02/27 08:33:58;;;;;;;2.85;2.75;;;;;;;-0.42;100.00;102506.50;6078498;23;20022;-73
2023/02/27 08:36:36;;;;;;;2.40;2.30;;;;;;;-0.52;100.00;102475.28;6076621;23;20472;-72
2023/02/27 08:39:02;;;;;;;7.22;2.88;;;;;;;-0.46;100.00;102486.63;6079352;23;20045;-73
2023/02/27 08:41:28;;;;;;;2.75;2.65;;;;;;;-0.31;100.00;102508.44;6080394;23;20009;-72
2023/02/27 08:43:55;;;;;;;2.50;2.40;;;;;;;-1.31;100.00;102305.16;6076846;23;20030;-72
2023/02/27 08:46:21;;;;;;;2.55;2.45;;;;;;;-1.12;100.00;102348.53;6061815;23;20234;-73
2023/02/27 08:48:48;;;;;;;2.78;2.67;;;;;;;-1.49;100.00;102236.09;6080421;23;20030;-72
2023/02/27 08:51:14;;;;;;;2.97;2.88;;;;;;;0.18;100.00;102502.59;6080924;23;20018;-72
2023/02/27 08:53:40;;;;;;;3.42;3.28;;;;;;;0.34;100.00;102487.38;6043319;23;20041;-73
2023/02/27 08:56:07;;;;;;;3.17;2.85;;;;;;;0.35;97.31;102481.41;6077901;23;20217;-72
2023/02/27 08:58:34;;;;;;;2.80;2.60;;;;;;;0.39;95.12;102481.47;6054193;23;20021;-72
2023/02/27 09:01:04;;;;;;;2.70;2.60;;;;;;;0.50;93.93;102476.53;6076995;23;20029;-73
2023/02/27 09:03:30;;;;;;;2.80;2.70;;;;;;;0.56;91.60;102468.88;6081542;23;20267;-73
2023/02/27 09:05:57;;;;;;;3.03;2.90;;;;;;;0.33;90.40;102405.59;6052439;23;20418;-73
2023/02/27 09:08:23;;;;;;;4.20;3.17;;;;;;;0.36;89.54;102400.47;6048667;23;20046;-73
2023/02/27 09:10:50;;;;;;;2.70;2.60;;;;;;;0.46;89.13;102406.69;6065072;23;20351;-72
2023/02/27 09:13:16;;;;;;;3.70;3.40;;;;;;;0.44;88.47;102401.50;6058552;23;20026;-73
2023/02/27 09:15:46;;;;;;;2.95;2.75;;;;;;;0.59;87.34;102390.56;6073554;23;20122;-73
2023/02/27 09:18:12;;;;;;;3.00;2.90;;;;;;;1.18;86.39;102464.69;6052012;23;20033;-73
2023/02/27 09:20:40;;;;;;;3.28;3.08;;;;;;;1.18;84.70;102450.06;6033406;23;20025;-70
2023/02/27 09:23:07;;;;;;;3.35;3.05;;;;;;;0.39;84.68;102300.69;6055480;23;20053;-73
2023/02/27 09:25:33;;;;;;;4.40;3.00;;;;;;;1.24;83.09;102410.47;6057610;23;20023;-73
2023/02/27 09:28:00;;;;;;;2.70;2.60;;;;;;;1.44;81.66;102422.81;6048080;23;20026;-72
2023/02/27 09:30:27;;;;;;;3.28;2.95;;;;;;;1.51;80.19;102407.41;6071385;23;20092;-74
2023/02/27 09:32:53;;;;;;;9.73;2.83;;;;;;;1.36;79.06;102361.53;6054891;23;20596;-72
2023/02/27 09:35:20;;;;;;;11.60;10.90;;;;;;;1.78;77.65;102400.81;5954396;23;20285;-72
2023/02/27 09:37:50;;;;;;;3.00;2.90;;;;;;;1.70;77.14;102371.41;6068316;23;20283;-72
2023/02/27 09:40:27;;;;;;;3.17;3.08;;;;;;;1.83;76.76;102388.81;6075291;23;20030;-72
2023/02/27 09:42:59;;;;;;;2.88;2.78;;;;;;;1.88;75.28;102379.38;6078466;23;20033;-71
2023/02/27 09:45:29;;;;;;;3.38;3.17;;;;;;;1.59;75.10;102312.63;6031131;23;20026;-73
2023/02/27 09:48:15;;;;;;;2.78;2.67;;;;;;;1.55;74.23;102282.41;6055837;23;20022;-70
2023/02/27 09:50:45;;;;;;;3.00;2.90;;;;;;;1.66;72.18;102277.31;6059172;23;20089;-74
2023/02/27 09:53:28;;;;;;;3.15;2.95;;;;;;;1.90;71.10;102291.38;6077449;23;20185;-70
2023/02/27 09:55:56;;;;;;;;;;;;;;;2.10;71.74;102301.91;6058148;23;20655;-73
2023/02/27 09:58:28;;;;;;;2.80;2.70;;;;;;;1.92;70.38;102274.97;6075647;23;19910;-73
2023/02/27 10:01:07;;;;;;;3.10;2.90;;;;;;;1.95;70.43;102251.72;6050112;23;20226;-73
2023/02/27 10:03:40;;;;;;;3.10;3.00;;;;;;;2.28;70.11;102288.25;6030004;23;20030;-73
2023/02/27 10:06:23;;;;;;;3.03;2.92;;;;;;;2.30;69.74;102274.44;6075984;23;20010;-72
2023/02/27 10:08:58;;;;;;;4.60;3.17;;;;;;;2.40;69.18;102272.78;6080709;23;20081;-70
2023/02/27 10:11:53;;;;;;;3.25;3.15;;;;;;;2.38;68.31;102246.84;6077229;23;20032;-71
2023/02/27 10:14:44;;;;;;;3.58;3.38;;;;;;;2.49;67.60;102246.94;6075441;23;20029;-73
2023/02/27 10:17:23;;;;;;;3.08;2.88;;;;;;;2.26;68.16;102194.97;6052749;23;20332;-72
2023/02/27 10:19:52;;;;;;;2.95;2.85;;;;;;;2.80;66.17;102240.19;6081830;23;20142;-74
2023/02/27 10:22:27;;;;;;;3.10;3.00;;;;;;;2.52;66.31;102157.97;6079107;23;20022;-74
2023/02/27 10:25:09;;;;;;;2.70;2.60;;;;;;;3.29;66.31;102256.84;6074887;23;20092;-71
2023/02/27 10:28:00;;;;;;;3.00;2.90;;;;;;;2.83;66.19;102189.22;6073925;23;20033;-71
2023/02/27 10:30:28;;;;;;;2.83;2.72;;;;;;;3.10;65.97;102248.09;6053238;23;20389;-72
2023/02/27 10:33:08;;;;;;;2.90;2.80;;;;;;;3.01;64.88;102178.94;6076124;23;20018;-71
2023/02/27 10:35:41;;;;;;;2.90;2.80;;;;;;;2.67;64.25;102093.25;6030693;23;20026;-73
2023/02/27 10:38:20;;;;;;;3.00;2.90;;;;;;;3.26;63.96;102148.69;6080779;23;20201;-71
2023/02/27 10:40:47;;;;;;;3.03;2.75;;;;;;;3.21;62.78;102124.50;6057642;23;20014;-72
2023/02/27 10:43:17;;;;;;;2.80;2.70;;;;;;;3.27;62.08;102097.66;6079123;23;20741;-70
2023/02/27 10:45:44;;;;;;;2.92;2.83;;;;;;;3.61;62.94;102155.66;6054388;23;20203;-72
2023/02/27 10:48:11;;;;;;;3.20;3.10;;;;;;;3.56;62.50;102105.47;6079436;23;20026;-73
2023/02/27 10:50:50;;;;;;;3.22;3.13;;;;;;;3.47;62.97;102121.03;6048676;23;20457;-72
2023/02/27 10:53:21;;;;;;;3.60;3.30;;;;;;;3.73;62.30;102181.63;6078133;23;20037;-70
2023/02/27 10:56:01;;;;;;;3.38;3.17;;;;;;;3.74;60.96;102122.78;6050528;23;20100;-73
2023/02/27 10:58:33;;;;;;;3.08;2.97;;;;;;;3.59;60.58;102067.41;6057530;23;20405;-72
2023/02/27 11:01:03;;;;;;;;;;;;;;;3.84;61.34;102095.91;6077945;23;20035;-70
2023/02/27 11:03:37;;;;;;;3.10;3.00;;;;;;;3.70;61.74;102085.56;6034239;23;19922;-71
2023/02/27 11:06:22;;;;;;;2.92;2.83;;;;;;;3.92;60.92;102122.75;6052415;23;20013;-70
2023/02/27 11:09:11;;;;;;;3.03;2.92;;;;;;;3.70;59.81;102009.41;6078585;23;20514;-74
2023/02/27 11:11:38;;;;;;;3.40;3.30;;;;;;;3.40;60.08;102011.19;6053474;23;20116;-72
2023/02/27 11:14:23;;;;;;;2.88;2.78;;;;;;;3.42;60.00;101998.22;6024990;23;20059;-73
2023/02/27 11:16:59;;;;;;;3.15;3.05;;;;;;;3.13;60.66;101955.88;6079023;23;20028;-72
2023/02/27 11:19:36;;;;;;;3.42;3.22;;;;;;;3.45;60.56;102043.19;6076594;23;20246;-72
2023/02/27 11:22:06;;;;;;;3.20;3.00;;;;;;;3.52;61.42;102062.22;6051072;23;20898;-74
2023/02/27 11:24:33;;;;;;;3.00;2.88;;;;;;;3.54;60.58;102025.00;6079167;23;20037;-71
2023/02/27 11:27:04;;;;;;;2.88;2.78;;;;;;;4.04;60.34;102040.47;6052661;23;20033;-74
2023/02/27 11:29:32;;;;;;;3.33;3.22;;;;;;;4.22;58.89;102022.19;6054923;23;20412;-73
2023/02/27 11:32:03;;;;;;;3.10;2.92;;;;;;;4.36;59.17;102049.00;6052289;23;20472;-73
2023/02/27 11:34:36;;;;;;;3.30;3.10;;;;;;;3.92;58.26;101919.31;6052751;23;20496;-70
2023/02/27 11:37:17;;;;;;;3.35;3.20;;;;;;;4.48;58.77;101996.06;6055316;23;20018;-71
2023/02/27 11:39:50;;;;;;;3.40;3.30;;;;;;;4.29;58.43;101960.66;6076934;23;20339;-72
2023/02/27 11:42:29;;;;;;;3.38;3.22;;;;;;;4.80;58.28;101998.47;6077480;23;20258;-75
2023/02/27 11:45:00;;;;;;;3.45;3.30;;;;;;;4.54;57.74;101904.19;6077690;23;20038;-73